createdAt,value
2022-09-04T00:00:10.371Z,99608.09
2022-09-04T00:05:57.105Z,99612.55
2022-09-04T00:08:40.877Z,99614.84
2022-09-04T00:11:19.090Z,99617.33
2022-09-04T00:13:55.099Z,99619.80
2022-09-04T00:16:31.384Z,99616.12
2022-09-04T00:19:07.765Z,99622.11
2022-09-04T00:21:43.834Z,99621.22
2022-09-04T00:24:20.226Z,99627.20
2022-09-04T00:26:57.073Z,99627.95
2022-09-04T00:29:37.613Z,99627.83
2022-09-04T00:32:15.768Z,99625.97
2022-09-04T00:34:51.857Z,99633.69
2022-09-04T00:37:27.688Z,99626.75
2022-09-04T00:40:04.387Z,99625.70
2022-09-04T00:42:54.308Z,99620.37
2022-09-04T00:45:49.597Z,99622.05
2022-09-04T00:48:32.595Z,99623.75
2022-09-04T00:51:30.554Z,99618.55
2022-09-04T00:54:14.223Z,99622.91
2022-09-04T00:56:59.808Z,99624.59
2022-09-04T00:59:44.080Z,99628.05
2022-09-04T01:02:20.558Z,99627.93
2022-09-04T01:04:58.647Z,99622.60
2022-09-04T01:07:40.183Z,99623.41
2022-09-04T01:10:23.961Z,99635.51
2022-09-04T01:13:01.462Z,99631.94
2022-09-04T01:15:39.280Z,99633.58
2022-09-04T01:18:15.283Z,99630.08
2022-09-04T01:20:58.755Z,99623.92
2022-09-04T01:23:46.351Z,99623.86
2022-09-04T01:26:23.054Z,99633.25
2022-09-04T01:29:02.853Z,99627.92
2022-09-04T01:31:39.606Z,99634.78
2022-09-04T01:34:29.613Z,99627.75
2022-09-04T01:37:07.573Z,99636.34
2022-09-04T01:39:44.247Z,99629.31
2022-09-04T01:45:00.904Z,99633.09
2022-09-04T01:47:37.627Z,99634.48
2022-09-04T01:50:13.732Z,99642.27
2022-09-04T01:52:51.731Z,99642.23
2022-09-04T01:55:24.794Z,99637.88
2022-09-04T01:58:03.009Z,99637.15
2022-09-04T02:00:39.871Z,99639.67
2022-09-04T02:03:16.521Z,99638.73
2022-09-04T02:05:56.551Z,99635.31
2022-09-04T02:08:47.738Z,99635.31
2022-09-04T02:11:26.576Z,99633.61
2022-09-04T02:14:09.503Z,99624.02
2022-09-04T02:16:49.379Z,99638.64
2022-09-04T02:19:29.785Z,99634.23
2022-09-04T02:22:07.553Z,99636.73
2022-09-04T02:24:43.879Z,99628.88
2022-09-04T02:27:19.845Z,99624.51
2022-09-04T02:29:56.048Z,99630.53
2022-09-04T02:32:32.435Z,99623.61
2022-09-04T02:35:11.008Z,99624.44
2022-09-04T02:37:49.408Z,99624.41
2022-09-04T02:40:25.738Z,99621.77
2022-09-04T02:43:08.802Z,99624.30
2022-09-04T02:45:45.751Z,99626.06
2022-09-04T02:48:22.253Z,99630.28
2022-09-04T02:51:03.383Z,99638.08
2022-09-04T02:53:39.283Z,99631.05
2022-09-04T02:56:22.957Z,99637.86
2022-09-04T03:01:50.047Z,99627.62
2022-09-04T03:04:28.930Z,99642.80
2022-09-04T03:07:07.046Z,99633.17
2022-09-04T03:12:33.245Z,99637.72
2022-09-04T03:15:14.790Z,99638.25
2022-09-04T03:17:53.406Z,99648.63
2022-09-04T03:20:29.556Z,99636.48
2022-09-04T03:23:05.950Z,99642.54
2022-09-04T03:25:50.451Z,99636.56
2022-09-04T03:28:29.289Z,99634.07
2022-09-04T03:31:06.030Z,99641.10
2022-09-04T03:33:42.004Z,99640.34
2022-09-04T03:36:17.966Z,99646.52
2022-09-04T03:38:55.174Z,99638.76
2022-09-04T03:41:31.138Z,99637.06
2022-09-04T03:44:12.847Z,99625.67
2022-09-04T03:46:53.110Z,99638.83
2022-09-04T03:49:31.728Z,99634.58
2022-09-04T03:52:08.311Z,99635.48
2022-09-04T03:54:49.245Z,99633.89
2022-09-04T03:57:30.152Z,99636.59
2022-09-04T04:00:11.285Z,99635.83
2022-09-04T04:03:15.524Z,99625.52
2022-09-04T04:05:57.414Z,99629.91
2022-09-04T04:08:56.694Z,99628.28
2022-09-04T04:12:01.633Z,99636.21
2022-09-04T04:14:52.136Z,99633.72
2022-09-04T04:17:42.662Z,99632.08
2022-09-04T04:20:24.390Z,99631.28
2022-09-04T04:23:33.360Z,99627.05
2022-09-04T04:26:13.089Z,99626.29
2022-09-04T04:28:59.544Z,99631.58
2022-09-04T04:31:39.813Z,99629.12
2022-09-04T04:34:18.390Z,99624.08
2022-09-04T04:36:54.492Z,99631.11
2022-09-04T04:39:31.577Z,99624.34
2022-09-04T04:42:12.185Z,99626.16
2022-09-04T04:45:23.587Z,99623.69
2022-09-04T04:48:30.834Z,99622.89
2022-09-04T04:51:12.451Z,99630.78
2022-09-04T04:53:49.615Z,99624.74
2022-09-04T04:56:26.499Z,99627.47
2022-09-04T04:59:07.021Z,99627.55
2022-09-04T05:01:49.560Z,99629.44
2022-09-04T05:04:31.861Z,99620.89
2022-09-04T05:09:56.612Z,99623.17
2022-09-04T05:12:34.002Z,99623.01
2022-09-04T05:15:11.468Z,99620.58
2022-09-04T05:17:47.953Z,99616.41
2022-09-04T05:20:48.003Z,99613.10
2022-09-04T05:23:29.178Z,99615.89
2022-09-04T05:26:06.499Z,99622.13
2022-09-04T05:28:44.656Z,99617.92
2022-09-04T05:31:24.125Z,99614.64
2022-09-04T05:34:02.705Z,99620.83
2022-09-04T05:36:41.464Z,99626.92
2022-09-04T05:39:21.332Z,99624.42
2022-09-04T05:42:06.639Z,99633.26
2022-09-04T05:44:54.480Z,99638.61
2022-09-04T05:47:34.416Z,99630.11
2022-09-04T05:50:30.509Z,99630.25
2022-09-04T05:53:22.504Z,99628.67
2022-09-04T05:59:46.612Z,99623.27
2022-09-04T06:02:34.434Z,99629.77
2022-09-04T06:05:22.491Z,99632.05
2022-09-04T06:08:01.060Z,99632.09
2022-09-04T06:10:39.651Z,99633.07
2022-09-04T06:13:42.868Z,99642.75
2022-09-04T06:16:24.992Z,99635.85
2022-09-04T06:19:08.186Z,99626.33
2022-09-04T06:25:31.505Z,99625.95
2022-09-04T06:28:28.399Z,99638.27
2022-09-04T06:31:05.612Z,99628.05
2022-09-04T06:34:00.292Z,99623.81
2022-09-04T06:36:42.409Z,99622.27
2022-09-04T06:39:26.480Z,99595.38
2022-09-04T06:42:15.465Z,99600.89
2022-09-04T06:44:56.225Z,99601.33
2022-09-04T06:47:35.323Z,99603.53
2022-09-04T06:50:22.227Z,99605.63
2022-09-04T06:53:18.468Z,99614.33
2022-09-04T06:55:58.274Z,99607.58
2022-09-04T06:58:53.144Z,99608.86
2022-09-04T07:01:40.809Z,99597.77
2022-09-04T07:04:38.521Z,99605.66
2022-09-04T07:07:24.802Z,99602.59
2022-09-04T07:10:01.829Z,99596.40
2022-09-04T07:16:24.822Z,99603.53
2022-09-04T07:19:29.602Z,99604.69
2022-09-04T07:22:18.341Z,99594.81
2022-09-04T07:25:08.915Z,99585.12
2022-09-04T07:27:58.266Z,99587.19
2022-09-04T07:30:35.056Z,99592.55
2022-09-04T07:33:12.537Z,99583.66
2022-09-04T07:35:50.719Z,99587.91
2022-09-04T07:38:29.201Z,99591.13
2022-09-04T07:41:08.049Z,99592.30
2022-09-04T07:43:49.257Z,99584.53
2022-09-04T07:46:26.278Z,99589.41
2022-09-04T07:51:59.207Z,99584.70
2022-09-04T07:58:03.281Z,99569.52
2022-09-04T08:00:41.676Z,99576.45
2022-09-04T08:03:35.316Z,99597.91
2022-09-04T08:06:14.455Z,99582.10
2022-09-04T08:09:05.867Z,99558.17
2022-09-04T08:12:28.129Z,99558.32
2022-09-04T08:15:06.573Z,99567.15
2022-09-04T08:18:13.206Z,99556.55
2022-09-04T08:20:49.666Z,99555.69
2022-09-04T08:23:32.175Z,99566.13
2022-09-04T08:26:14.357Z,99573.39
2022-09-04T08:28:57.478Z,99573.66
2022-09-04T08:31:33.655Z,99564.89
2022-09-04T08:34:53.225Z,99557.89
2022-09-04T08:37:29.348Z,99551.81
2022-09-04T08:40:16.776Z,99563.91
2022-09-04T08:43:19.862Z,99547.30
2022-09-04T08:49:42.306Z,99529.65
2022-09-04T08:52:55.259Z,99538.38
2022-09-04T08:56:06.582Z,99526.38
2022-09-04T08:59:16.248Z,99520.69
2022-09-04T09:02:18.203Z,99516.36
2022-09-04T09:05:32.847Z,99512.11
2022-09-04T09:08:17.689Z,99535.21
2022-09-04T09:11:30.001Z,99543.60
2022-09-04T09:14:31.992Z,99536.25
2022-09-04T09:17:16.808Z,99524.70
2022-09-04T09:22:54.459Z,99522.45
2022-09-04T09:25:31.154Z,99514.30
2022-09-04T09:28:32.045Z,99520.37
2022-09-04T09:31:49.185Z,99514.70
2022-09-04T09:35:03.047Z,99521.47
2022-09-04T09:38:04.275Z,99511.59
2022-09-04T09:41:16.768Z,99513.10
2022-09-04T09:44:27.745Z,99505.98
2022-09-04T09:47:27.396Z,99521.16
2022-09-04T09:50:23.811Z,99522.61
2022-09-04T09:53:52.012Z,99513.78
2022-09-04T10:00:17.397Z,99532.59
2022-09-04T10:03:31.079Z,99526.59
2022-09-04T10:06:20.836Z,99526.97
2022-09-04T10:09:34.993Z,99521.72
2022-09-04T10:12:39.078Z,99510.61
2022-09-04T10:15:39.299Z,99516.52
2022-09-04T10:22:54.886Z,99517.30
2022-09-04T10:29:43.122Z,99509.58
2022-09-04T10:32:52.271Z,99500.24
2022-09-04T10:35:36.730Z,99507.00
2022-09-04T10:38:32.837Z,99495.16
2022-09-04T10:44:46.426Z,99507.67
2022-09-04T10:47:28.626Z,99516.11
2022-09-04T10:50:27.283Z,99507.59
2022-09-04T10:53:35.269Z,99502.89
2022-09-04T10:56:16.444Z,99498.42
2022-09-04T10:59:35.931Z,99482.61
2022-09-04T11:02:32.375Z,99495.30
2022-09-04T11:05:29.510Z,99511.61
2022-09-04T11:08:36.665Z,99498.97
2022-09-04T11:11:12.643Z,99516.70
2022-09-04T11:17:28.555Z,99527.55
2022-09-04T11:20:39.612Z,99532.24
2022-09-04T11:23:56.207Z,99538.91
2022-09-04T11:30:14.580Z,99515.30
2022-09-04T11:36:44.188Z,99517.67
2022-09-04T11:40:05.272Z,99512.30
2022-09-04T11:42:50.435Z,99521.94
2022-09-04T11:46:12.005Z,99506.73
2022-09-04T11:49:20.309Z,99495.42
2022-09-04T11:52:28.776Z,99478.05
2022-09-04T11:55:23.762Z,99484.28
2022-09-04T11:58:19.079Z,99479.36
2022-09-04T12:00:59.511Z,99473.15
2022-09-04T12:04:11.331Z,99494.52
2022-09-04T12:06:53.840Z,99502.67
2022-09-04T12:10:21.358Z,99501.91
2022-09-04T12:13:15.155Z,99509.88
2022-09-04T12:16:22.985Z,99497.59
2022-09-04T12:19:40.438Z,99509.31
2022-09-04T12:22:37.884Z,99510.48
2022-09-04T12:25:41.349Z,99504.38
2022-09-04T12:29:07.277Z,99511.97
2022-09-04T12:32:07.420Z,99496.41
2022-09-04T12:35:02.541Z,99473.95
2022-09-04T12:38:21.543Z,99499.63
2022-09-04T12:41:03.469Z,99504.05
2022-09-04T12:43:46.471Z,99498.98
2022-09-04T12:46:31.035Z,99498.64
2022-09-04T12:49:11.145Z,99490.66
2022-09-04T12:51:49.491Z,99472.41
2022-09-04T12:54:33.455Z,99468.41
2022-09-04T12:57:26.126Z,99476.31
2022-09-04T13:00:07.687Z,99476.50
2022-09-04T13:02:50.847Z,99469.80
2022-09-04T13:08:36.402Z,99461.19
2022-09-04T13:11:21.054Z,99459.39
2022-09-04T13:13:57.625Z,99462.69
2022-09-04T13:16:34.327Z,99458.66
2022-09-04T13:19:12.673Z,99467.50
2022-09-04T13:22:02.503Z,99473.95
2022-09-04T13:24:44.449Z,99473.70
2022-09-04T13:27:31.186Z,99457.77
2022-09-04T13:30:09.507Z,99466.80
2022-09-04T13:33:17.847Z,99446.73
2022-09-04T13:36:00.227Z,99469.78
2022-09-04T13:38:56.075Z,99470.70
2022-09-04T13:41:46.678Z,99478.14
2022-09-04T13:44:34.431Z,99472.34
2022-09-04T13:47:11.656Z,99467.17
2022-09-04T13:49:48.812Z,99449.52
2022-09-04T13:52:26.767Z,99447.96
2022-09-04T13:55:04.593Z,99453.36
2022-09-04T13:57:42.815Z,99451.56
2022-09-04T14:00:18.240Z,99452.43
2022-09-04T14:02:56.873Z,99454.58
2022-09-04T14:05:33.404Z,99452.19
2022-09-04T14:08:12.514Z,99452.74
2022-09-04T14:10:58.839Z,99458.59
2022-09-04T14:13:41.842Z,99452.02
2022-09-04T14:16:16.056Z,99454.22
2022-09-04T14:19:01.663Z,99459.63
2022-09-04T14:21:47.608Z,99458.40
2022-09-04T14:24:24.439Z,99462.98
2022-09-04T14:27:00.864Z,99466.95
2022-09-04T14:29:38.505Z,99463.28
2022-09-04T14:32:18.552Z,99471.29
2022-09-04T14:34:57.259Z,99469.92
2022-09-04T14:37:38.561Z,99480.08
2022-09-04T14:40:15.225Z,99475.87
2022-09-04T14:42:52.258Z,99474.50
2022-09-04T14:45:36.219Z,99457.76
2022-09-04T14:48:12.663Z,99458.62
2022-09-04T14:50:50.708Z,99449.91
2022-09-04T14:53:28.382Z,99452.82
2022-09-04T14:56:26.256Z,99452.77
2022-09-04T14:59:04.616Z,99451.30
2022-09-04T15:01:40.849Z,99451.38
2022-09-04T15:04:18.221Z,99462.65
2022-09-04T15:07:10.708Z,99461.06
2022-09-04T15:09:34.320Z,99452.55
2022-09-04T15:12:24.752Z,99462.03
2022-09-04T15:14:55.227Z,99458.47
2022-09-04T15:17:31.437Z,99457.84
2022-09-04T15:20:09.164Z,99460.70
2022-09-04T15:22:42.995Z,99460.78
2022-09-04T15:25:32.549Z,99466.38
2022-09-04T15:28:01.974Z,99459.75
2022-09-04T15:30:42.538Z,99467.83
2022-09-04T15:33:15.392Z,99461.25
2022-09-04T15:35:52.305Z,99463.28
2022-09-04T15:38:27.914Z,99463.81
2022-09-04T15:41:19.952Z,99463.81
2022-09-04T15:43:42.746Z,99465.56
2022-09-04T15:46:28.601Z,99464.33
2022-09-04T15:49:07.933Z,99460.02
2022-09-04T15:51:46.178Z,99458.01
2022-09-04T15:54:49.790Z,99473.74
2022-09-04T15:57:26.117Z,99473.25
2022-09-04T16:00:02.221Z,99468.16
2022-09-04T16:02:41.128Z,99467.61
2022-09-04T16:05:23.561Z,99464.56
2022-09-04T16:08:00.795Z,99478.98
2022-09-04T16:10:48.228Z,99477.55
2022-09-04T16:13:39.769Z,99481.40
2022-09-04T16:16:17.806Z,99474.67
2022-09-04T16:19:00.169Z,99479.28
2022-09-04T16:21:42.476Z,99482.96
2022-09-04T16:24:19.208Z,99483.95
2022-09-04T16:26:55.258Z,99483.11
2022-09-04T16:29:35.909Z,99487.53
2022-09-04T16:32:12.365Z,99486.69
2022-09-04T16:34:50.713Z,99485.81
2022-09-04T16:37:28.894Z,99492.83
2022-09-04T16:40:15.507Z,99493.69
2022-09-04T16:42:52.685Z,99499.82
2022-09-04T16:45:30.249Z,99503.27
2022-09-04T16:48:33.981Z,99500.67
2022-09-04T16:50:45.762Z,99493.66
2022-09-04T16:53:23.491Z,99502.37
2022-09-04T16:56:02.749Z,99504.09
2022-09-04T16:58:41.984Z,99494.48
2022-09-04T17:01:19.378Z,99499.71
2022-09-04T17:04:23.463Z,99489.14
2022-09-04T17:07:03.490Z,99507.52
2022-09-04T17:12:52.863Z,99515.37
2022-09-04T17:15:30.901Z,99514.33
2022-09-04T17:18:09.646Z,99509.05
2022-09-04T17:23:50.331Z,99512.48
2022-09-04T17:28:55.911Z,99516.86
2022-09-04T17:29:10.110Z,99508.09
2022-09-04T17:29:15.036Z,99515.09
2022-09-04T17:31:30.039Z,99513.28
2022-09-04T17:39:12.004Z,99508.05
2022-09-04T17:40:47.085Z,99504.47
2022-09-04T17:40:53.466Z,99502.77
2022-09-04T17:42:10.133Z,99506.17
2022-09-04T17:44:47.099Z,99504.37
2022-09-04T17:47:28.497Z,99513.95
2022-09-04T17:50:03.046Z,99504.36
2022-09-04T17:52:40.094Z,99513.05
2022-09-04T17:55:15.378Z,99513.91
2022-09-04T17:57:57.940Z,99513.05
2022-09-04T18:00:35.603Z,99507.81
2022-09-04T18:03:15.156Z,99516.52
2022-09-04T18:05:53.678Z,99519.08
2022-09-04T18:08:32.307Z,99511.16
2022-09-04T18:11:12.294Z,99512.01
2022-09-04T18:13:49.275Z,99509.34
2022-09-04T18:16:47.762Z,99513.66
2022-09-04T18:19:23.201Z,99512.73
2022-09-04T18:22:24.949Z,99504.82
2022-09-04T18:24:38.623Z,99512.64
2022-09-04T18:30:57.198Z,99508.35
2022-09-04T18:37:17.020Z,99502.11
2022-09-04T18:37:22.651Z,99495.18
2022-09-04T18:37:59.882Z,99499.44
2022-09-04T18:40:53.527Z,99495.02
2022-09-04T18:50:22.112Z,99501.00
2022-09-04T18:50:46.627Z,99499.98
2022-09-04T18:50:47.146Z,99495.69
2022-09-04T18:51:21.235Z,99493.83
2022-09-04T18:53:57.058Z,99498.17
2022-09-04T18:56:33.106Z,99497.23
2022-09-04T18:59:11.222Z,99494.58
2022-09-04T19:01:48.147Z,99489.33
2022-09-04T19:04:49.298Z,99498.86
2022-09-04T19:07:32.649Z,99487.48
2022-09-04T19:10:34.399Z,99497.91
2022-09-04T19:13:11.292Z,99497.00
2022-09-04T19:16:06.117Z,99500.45
2022-09-04T19:18:49.162Z,99496.95
2022-09-04T19:21:31.244Z,99491.68
2022-09-04T19:24:14.360Z,99493.41
2022-09-04T19:26:50.948Z,99499.41
2022-09-04T19:29:27.563Z,99497.63
2022-09-04T19:32:04.063Z,99496.74
2022-09-04T19:38:07.841Z,99495.08
2022-09-04T19:45:54.911Z,99490.53
2022-09-04T19:46:00.253Z,99488.80
2022-09-04T19:46:18.138Z,99501.75
2022-09-04T19:47:59.289Z,99491.22
2022-09-04T19:53:18.730Z,99500.75
2022-09-04T19:53:38.668Z,99491.13
2022-09-04T19:56:10.414Z,99490.23
2022-09-04T19:58:45.791Z,99490.16
2022-09-04T20:01:21.779Z,99490.07
2022-09-04T20:03:58.742Z,99497.00
2022-09-04T20:06:36.520Z,99490.85
2022-09-04T20:09:12.731Z,99499.50
2022-09-04T20:11:49.361Z,99493.34
2022-09-04T20:14:26.798Z,99503.73
2022-09-04T20:17:06.239Z,99501.08
2022-09-04T20:19:43.365Z,99504.58
2022-09-04T20:22:27.728Z,99503.63
2022-09-04T20:25:08.073Z,99499.28
2022-09-04T20:27:46.294Z,99498.34
2022-09-04T20:30:25.086Z,99493.94
2022-09-04T20:33:02.170Z,99491.30
2022-09-04T20:35:40.082Z,99496.44
2022-09-04T20:38:22.993Z,99494.64
2022-09-04T20:40:57.744Z,99499.86
2022-09-04T20:43:35.083Z,99496.30
2022-09-04T20:51:01.855Z,99499.70
2022-09-04T20:52:48.886Z,99488.33
2022-09-04T20:53:05.037Z,99503.02
2022-09-04T20:54:28.193Z,99495.98
2022-09-04T20:58:40.359Z,99493.29
2022-09-04T21:03:09.733Z,99492.41
2022-09-04T21:03:23.007Z,99496.70
2022-09-04T21:04:57.796Z,99493.13
2022-09-04T21:07:34.142Z,99494.73
2022-09-04T21:10:13.038Z,99489.48
2022-09-04T21:12:52.557Z,99489.44
2022-09-04T21:15:27.592Z,99490.27
2022-09-04T21:18:17.646Z,99490.16
2022-09-04T21:20:59.896Z,99489.25
2022-09-04T21:24:01.973Z,99491.78
2022-09-04T21:26:36.429Z,99482.14
2022-09-04T21:29:21.850Z,99490.70
2022-09-04T21:32:27.165Z,99489.80
2022-09-04T21:35:08.912Z,99484.47
2022-09-04T21:37:49.266Z,99491.30
2022-09-04T21:40:51.435Z,99482.52
2022-09-04T21:43:33.522Z,99488.55
2022-09-04T21:46:17.018Z,99483.16
2022-09-04T21:49:25.693Z,99489.09
2022-09-04T21:51:59.310Z,99490.72
2022-09-04T21:58:10.139Z,99487.11
2022-09-04T22:02:30.335Z,99494.89
2022-09-04T22:02:42.249Z,99491.31
2022-09-04T22:03:44.184Z,99487.73
2022-09-04T22:07:43.215Z,99493.72
2022-09-04T22:13:33.190Z,99489.33
2022-09-04T22:13:46.420Z,99490.97
2022-09-04T22:14:32.275Z,99490.91
2022-09-04T22:17:17.083Z,99487.39
2022-09-04T22:20:33.095Z,99479.48
2022-09-04T22:23:45.643Z,99482.83
2022-09-04T22:26:55.097Z,99472.17
2022-09-04T22:29:54.373Z,99485.06
2022-09-04T22:33:05.390Z,99481.42
2022-09-04T22:36:05.997Z,99487.42
2022-09-04T22:39:12.294Z,99490.83
2022-09-04T22:41:54.460Z,99463.52
2022-09-04T22:44:33.277Z,99490.73
2022-09-04T22:47:36.498Z,99492.38
2022-09-04T22:50:49.454Z,99489.77
2022-09-04T22:56:51.207Z,99485.56
2022-09-04T22:59:52.817Z,99484.36
2022-09-04T23:03:09.551Z,99490.35
2022-09-04T23:06:54.413Z,99485.99
2022-09-04T23:13:47.313Z,99487.59
2022-09-04T23:13:58.887Z,99486.63
2022-09-04T23:14:35.886Z,99479.61
2022-09-04T23:17:29.490Z,99482.14
2022-09-04T23:26:32.847Z,99480.34
2022-09-04T23:26:50.365Z,99482.84
2022-09-04T23:27:01.709Z,99486.20
2022-09-04T23:32:44.531Z,99481.14
2022-09-04T23:35:24.063Z,99490.03
2022-09-04T23:41:36.895Z,99483.77
2022-09-04T23:47:49.578Z,99493.03
2022-09-04T23:50:33.829Z,99488.30
2022-09-04T23:53:13.057Z,99490.72
2022-09-04T23:55:59.336Z,99492.38
2022-09-04T23:59:06.316Z,99489.68
